Latest Weather Observations for Launceston

IDT60801

Issued at 5:32 pm EDT Monday 27 March 2017 (issued every 30 minutes, with the page automatically refreshed every 10 minutes)

About weather observations | Map of weather stations | Latest weather observations for TAS | Other Formats
Station Details ID: 091237 Name: LAUNCESTON (TI TREE BEND) Lat: -41.42 Lon: 147.12 Height: 5.0 m
Data from the previous 72 hours. | See also: Recent months at Launceston
Date/Time
EDT
Temp
°C
App
Temp
°C
Dew
Point
°C
Rel
Hum
%
Delta-T
°C
Wind Press
QNH
hPa
Press
MSL
hPa
Rain since
9am
mm
Dir  Spd
km/h
Gust
km/h
Spd
kts
Gust
kts
27/05:30pm 15.2 13.0 13.2 88 1.1 NNW 17 24 9 13 - - 4.6
27/05:00pm 14.8 11.9 12.8 88 1.1 NNW 20 33 11 18 - - 4.6
27/04:30pm 15.1 12.2 12.8 86 1.3 NW 20 33 11 18 - - 4.0
27/04:00pm 16.4 11.6 12.8 79 2.0 NW 30 50 16 27 - - 3.2
27/03:51pm 17.1 12.7 12.8 76 2.4 NNW 28 50 15 27 - - 2.6
27/03:30pm 18.5 15.9 15.0 80 2.0 NNW 22 35 12 19 - - 2.6
27/03:00pm 19.9 16.7 18.2 90 1.1 NW 32 52 17 28 - - 2.6
27/02:51pm 21.0 18.1 18.0 83 1.9 NNW 30 48 16 26 - - 1.2
27/02:42pm 21.6 19.8 17.8 79 2.4 NNW 24 46 13 25 - - 1.2
27/02:30pm 21.2 21.0 18.6 85 1.6 NW 17 24 9 13 - - 1.2
27/02:00pm 21.3 20.1 18.5 84 1.8 NW 22 33 12 18 - - 1.2
27/01:30pm 22.3 21.9 18.9 81 2.1 NW 19 28 10 15 - - 1.2
27/01:00pm 21.5 22.8 19.4 88 1.3 NW 11 19 6 10 - - 1.2
27/12:30pm 21.1 23.4 19.4 90 1.1 NNW 6 9 3 5 - - 1.0
27/12:00pm 21.8 21.4 19.0 84 1.8 NNW 19 28 10 15 - - 0.0
27/11:30am 23.4 21.1 17.6 70 3.6 NW 26 37 14 20 - - 0.0
27/11:00am 23.7 23.7 18.1 71 3.5 NW 15 30 8 16 - - 0.0
27/10:30am 22.2 22.9 18.0 77 2.6 NW 11 19 6 10 - - 0.0
27/10:00am 22.0 23.3 18.4 80 2.3 NW 9 19 5 10 - - 0.0
27/09:30am 20.0 22.2 16.6 81 2.1 CALM 0 2 0 1 - - 0.0
27/09:00am 17.8 19.8 16.1 90 1.0 CALM 0 4 0 2 - - 0.2
27/08:30am 15.6 17.1 14.6 94 0.6 CALM 0 0 0 0 - - 0.2
27/08:00am 13.9 14.5 13.1 95 0.4 SSW 2 4 1 2 - - 0.2
27/07:30am 14.0 13.9 13.2 95 0.4 N 6 13 3 7 - - 0.2
27/07:00am 13.7 13.8 12.8 94 0.5 E 4 4 2 2 - - 0.2
27/06:30am 14.0 14.6 13.1 94 0.5 ENE 2 4 1 2 - - 0.2
27/06:00am 14.1 15.1 13.1 94 0.6 CALM 0 0 0 0 - - 0.2
27/05:30am 14.2 14.4 13.2 94 0.6 S 4 4 2 2 - - 0.2
27/05:00am 14.4 14.7 13.4 94 0.6 E 4 7 2 4 - - 0.2
27/04:30am 14.7 15.9 13.7 94 0.6 CALM 0 4 0 2 - - 0.2
27/04:00am 14.8 16.0 13.7 93 0.6 CALM 0 0 0 0 - - 0.2
27/03:30am 15.2 15.7 14.1 93 0.6 E 4 4 2 2 - - 0.2
27/03:00am 15.4 16.8 14.4 94 0.6 CALM 0 4 0 2 - - 0.2
27/02:30am 15.1 15.5 13.8 92 0.7 ESE 4 7 2 4 - - 0.2
27/02:00am 15.4 16.7 14.1 92 0.7 CALM 0 0 0 0 - - 0.2
27/01:30am 15.9 16.6 14.6 92 0.7 E 4 7 2 4 - - 0.2
27/01:00am 15.8 16.6 13.8 88 1.1 E 2 4 1 2 - - 0.2
27/12:30am 16.9 18.5 14.9 88 1.2 CALM 0 2 0 1 - - 0.2
27/12:00am 17.9 19.0 15.7 87 1.3 E 4 6 2 3 - - 0.2
 
Date/Time
EDT
Temp
°C
App
Temp
°C
Dew
Point
°C
Rel
Hum
%
Delta-T
°C
Wind Press
QNH
hPa
Press
MSL
hPa
Rain since
9am
mm
Dir  Spd
km/h
Gust
km/h
Spd
kts
Gust
kts
26/11:30pm 18.2 20.3 16.2 88 1.2 CALM 0 4 0 2 - - 0.2
26/11:00pm 18.3 20.1 16.5 89 1.1 N 2 4 1 2 - - 0.2
26/10:30pm 17.9 18.7 15.9 88 1.2 NNW 6 11 3 6 - - 0.2
26/10:00pm 17.4 17.8 15.2 87 1.3 NNW 7 11 4 6 - - 0.2
26/09:30pm 18.3 18.5 15.7 85 1.5 NW 9 13 5 7 - - 0.2
26/09:00pm 18.8 17.5 15.9 83 1.7 NW 17 24 9 13 - - 0.2
26/08:30pm 19.6 18.6 14.6 73 2.9 NW 13 19 7 10 - - 0.2
26/08:00pm 20.1 19.3 15.1 73 2.9 NW 13 20 7 11 - - 0.2
26/07:30pm 20.5 19.8 15.3 72 3.1 NW 13 19 7 10 - - 0.2
26/07:00pm 21.4 19.9 15.3 68 3.6 NW 17 22 9 12 - - 0.2
26/06:30pm 22.7 20.7 15.0 61 4.6 NW 19 28 10 15 - - 0.2
26/06:00pm 23.9 22.3 15.1 58 5.3 NW 17 24 9 13 - - 0.2
26/05:30pm 24.9 24.2 15.5 56 5.7 NW 13 19 7 10 - - 0.2
26/05:00pm 24.9 23.8 15.2 54 5.8 NW 15 20 8 11 - - 0.2
26/04:30pm 25.3 23.8 15.3 54 6.0 NNW 17 28 9 15 - - 0.2
26/04:00pm 25.2 24.1 14.3 50 6.5 NW 13 19 7 10 - - 0.2
26/03:30pm 25.8 25.5 14.3 49 6.8 NW 9 15 5 8 - - 0.2
26/03:00pm 25.6 25.0 13.5 47 7.1 NW 9 15 5 8 - - 0.2
26/02:30pm 25.1 24.5 13.6 49 6.7 NNW 9 15 5 8 - - 0.2
26/02:00pm 25.2 24.6 14.6 51 6.3 NW 11 19 6 10 - - 0.2
26/01:30pm 25.3 25.0 14.4 50 6.5 NW 9 17 5 9 - - 0.0
26/01:00pm 23.9 23.6 13.2 51 6.2 N 7 11 4 6 - - 0.0
26/12:30pm 23.3 23.3 13.5 54 5.7 W 6 9 3 5 - - 0.0
26/12:00pm 22.6 22.6 14.2 59 4.9 SE 7 13 4 7 - - 0.0
26/11:30am 21.3 22.5 14.9 67 3.8 SW 2 6 1 3 - - 0.0
26/11:00am 20.0 20.3 14.6 71 3.1 ENE 6 9 3 5 - - 0.0
26/10:30am 18.4 18.4 14.1 76 2.5 E 7 9 4 5 - - 0.0
26/10:00am 17.5 18.5 14.4 82 1.8 ENE 2 6 1 3 - - 0.0
26/09:30am 14.1 14.1 12.5 90 0.9 NNE 4 6 2 3 - - 0.0
26/09:00am 13.8 13.5 12.7 93 0.6 E 6 7 3 4 - - 0.4
26/08:30am 13.3 13.8 12.8 97 0.3 SE 2 6 1 3 - - 0.4
26/08:00am 11.5 10.5 11.0 97 0.3 E 7 9 4 5 - - 0.4
26/07:30am 10.8 10.9 10.3 97 0.3 CALM 0 0 0 0 - - 0.4
26/07:00am 10.9 10.7 10.4 97 0.3 SE 2 2 1 1 - - 0.4
26/06:30am 10.9 11.0 10.3 96 0.3 CALM 0 2 0 1 - - 0.4
26/06:00am 11.3 11.6 10.8 97 0.3 CALM 0 0 0 0 - - 0.4
26/05:30am 11.4 11.3 10.8 96 0.3 E 2 4 1 2 - - 0.4
26/05:00am 11.6 11.9 11.0 96 0.3 CALM 0 0 0 0 - - 0.4
26/04:30am 12.0 11.3 11.4 96 0.3 E 6 9 3 5 - - 0.4
26/04:00am 12.0 12.4 11.4 96 0.3 CALM 0 0 0 0 - - 0.4
26/03:30am 12.6 12.1 12.0 96 0.3 E 6 7 3 4 - - 0.4
26/03:00am 12.8 12.3 12.0 95 0.4 ENE 6 7 3 4 - - 0.4
26/02:30am 12.9 13.6 12.1 95 0.4 CALM 0 0 0 0 - - 0.4
26/02:00am 13.1 13.8 12.2 94 0.5 CALM 0 0 0 0 - - 0.4
26/01:30am 13.7 13.4 12.8 94 0.5 E 6 7 3 4 - - 0.4
26/01:00am 13.6 13.6 12.5 93 0.6 SSE 4 4 2 2 - - 0.4
26/12:30am 13.9 14.4 12.8 93 0.6 ESE 2 6 1 3 - - 0.4
26/12:00am 14.6 15.3 13.5 93 0.6 E 2 6 1 3 - - 0.4
 
Date/Time
EDT
Temp
°C
App
Temp
°C
Dew
Point
°C
Rel
Hum
%
Delta-T
°C
Wind Press
QNH
hPa
Press
MSL
hPa
Rain since
9am
mm
Dir  Spd
km/h
Gust
km/h
Spd
kts
Gust
kts
25/11:30pm 15.3 16.6 14.0 92 0.7 CALM 0 0 0 0 - - 0.4
25/11:00pm 15.1 16.1 13.1 88 1.1 CALM 0 0 0 0 - - 0.4
25/10:30pm 15.8 16.2 13.8 88 1.1 SE 4 4 2 2 - - 0.4
25/10:00pm 16.5 17.4 14.0 85 1.4 SE 2 4 1 2 - - 0.4
25/09:30pm 17.2 17.5 14.5 84 1.6 SSE 6 7 3 4 - - 0.4
25/09:00pm 17.5 18.2 14.6 83 1.7 SE 4 6 2 3 - - 0.4
25/08:30pm 17.5 18.5 14.4 82 1.8 SE 2 4 1 2 - - 0.4
25/08:00pm 17.9 19.3 14.4 80 2.0 CALM 0 4 0 2 - - 0.4
25/07:30pm 17.9 18.9 14.4 80 2.0 WSW 2 6 1 3 - - 0.4
25/07:00pm 17.9 17.9 14.2 79 2.1 SSW 7 11 4 6 - - 0.4
25/06:30pm 18.1 18.3 14.2 78 2.2 SSW 6 9 3 5 - - 0.4
25/06:00pm 18.4 18.4 14.3 77 2.4 SW 7 11 4 6 - - 0.4
25/05:30pm 18.7 19.0 14.4 76 2.5 S 6 9 3 5 - - 0.4
25/05:00pm 18.9 19.8 15.0 78 2.3 SSE 4 6 2 3 - - 0.4
25/04:30pm 18.6 20.4 15.5 82 1.8 CALM 0 0 0 0 - - 0.4
25/04:00pm 18.4 19.9 14.7 79 2.1 CALM 0 2 0 1 - - 0.4
25/03:30pm 18.5 19.2 14.6 78 2.3 NE 4 6 2 3 - - 0.4
25/03:00pm 18.5 19.7 14.8 79 2.1 NNE 2 4 1 2 - - 0.4
25/02:30pm 18.2 19.6 14.3 78 2.2 CALM 0 2 0 1 - - 0.4
25/02:00pm 18.5 19.0 14.0 75 2.6 ENE 4 6 2 3 - - 0.2
25/01:30pm 19.3 20.1 13.7 70 3.2 ESE 2 6 1 3 - - 0.0
25/01:00pm 19.4 19.2 12.9 66 3.7 SSE 6 9 3 5 - - 0.0
25/12:30pm 18.8 18.4 12.5 67 3.5 SSE 6 7 3 4 - - 0.0
25/12:00pm 17.9 17.6 12.8 72 2.8 E 6 9 3 5 - - 0.0
25/11:30am 17.3 17.4 12.8 75 2.5 NE 4 7 2 4 - - 0.0
25/11:00am 17.2 17.2 12.5 74 2.6 E 4 7 2 4 - - 0.0
25/10:30am 16.1 15.6 11.9 76 2.3 S 6 13 3 7 - - 0.0
25/10:00am 14.9 13.7 11.7 81 1.7 SSE 9 15 5 8 - - 0.0
25/09:30am 14.3 13.6 11.3 82 1.6 SE 6 9 3 5 - - 0.0
25/09:00am 14.3 13.1 9.7 74 2.4 E 6 9 3 5 - - 0.0
25/08:30am 14.4 13.9 9.2 71 2.7 SSE 2 4 1 2 - - 0.0
25/08:00am 14.3 12.9 8.9 70 2.7 ESE 6 9 3 5 - - 0.0
25/07:30am 13.8 12.7 9.8 77 2.1 NNE 6 6 3 3 - - 0.0
25/07:00am 14.5 13.6 9.1 70 2.8 SSE 4 6 2 3 - - 0.0
25/06:30am 14.3 12.9 8.9 70 2.7 ESE 6 9 3 5 - - 0.0
25/06:00am 14.3 13.4 9.1 71 2.6 ESE 4 6 2 3 - - 0.0
25/05:30am 14.3 12.8 8.5 68 2.9 SE 6 9 3 5 - - 0.0
25/05:00am 14.3 12.9 8.7 69 2.8 SSE 6 9 3 5 - - 0.0
25/04:30am 14.1 12.7 8.7 70 2.7 ESE 6 9 3 5 - - 0.0
25/04:00am 14.5 13.5 8.9 69 2.8 ESE 4 6 2 3 - - 0.0
25/03:30am 14.0 12.5 9.0 72 2.5 S 7 9 4 5 - - 0.0
25/03:00am 13.4 12.6 9.6 78 1.9 ENE 4 6 2 3 - - 0.0
25/02:30am 13.9 12.3 8.9 72 2.5 S 7 11 4 6 - - 0.0
25/02:00am 13.1 12.6 9.2 77 2.0 ENE 2 4 1 2 - - 0.0
25/01:30am 13.6 13.1 9.5 76 2.1 ENE 2 6 1 3 - - 0.0
25/01:00am 13.5 12.7 8.1 70 2.7 S 2 4 1 2 - - 0.0
25/12:30am 14.1 13.8 8.5 69 2.8 CALM 0 0 0 0 - - 0.0
25/12:00am 14.0 13.3 8.4 69 2.8 SW 2 4 1 2 - - 0.0
 
Date/Time
EDT
Temp
°C
App
Temp
°C
Dew
Point
°C
Rel
Hum
%
Delta-T
°C
Wind Press
QNH
hPa
Press
MSL
hPa
Rain since
9am
mm
Dir  Spd
km/h
Gust
km/h
Spd
kts
Gust
kts
24/11:30pm 14.1 13.2 9.3 73 2.4 SW 4 7 2 4 - - 0.0
24/11:00pm 14.1 12.8 9.1 72 2.5 NW 6 7 3 4 - - 0.0
24/10:30pm 14.4 13.2 9.6 73 2.5 NW 6 7 3 4 - - 0.0
24/10:00pm 14.9 13.0 9.1 68 3.0 NW 9 13 5 7 - - 0.0
24/09:30pm 15.2 13.5 9.8 70 2.8 NW 9 11 5 6 - - 0.0
24/09:00pm 15.6 13.9 9.7 68 3.1 NNW 9 13 5 7 - - 0.0
24/08:30pm 15.9 14.3 10.2 69 3.0 NW 9 17 5 9 - - 0.0
24/08:00pm 16.3 15.1 10.4 68 3.1 NW 7 13 4 7 - - 0.0
24/07:30pm 16.8 14.5 10.4 66 3.4 NNW 13 19 7 10 - - 0.0
24/07:00pm 17.3 15.0 10.4 64 3.7 NNW 13 17 7 9 - - 0.0
24/06:30pm 17.9 15.3 10.8 63 3.8 NW 15 20 8 11 - - 0.0
24/06:00pm 18.5 16.2 10.6 60 4.2 NW 13 20 7 11 - - 0.0

Other Formats:

Comma delimited format used in spreadsheet applications
http://www.bom.gov.au/fwo/IDT60801/IDT60801.94969.axf

JavaScript Object Notation format (JSON) in row-major order
http://www.bom.gov.au/fwo/IDT60801/IDT60801.94969.json